Time;durP1;ratioP1;P1;durP2;ratioP2;P2;SDS_P1;SDS_P2;PMS_P1;PMS_P2;Temp;Humidity;BMP_temperature;BMP_pressure;BME280_temperature;BME280_humidity;BME280_pressure;Samples;Min_cycle;Max_cycle;Signal;HPM_P1;HPM_P2
2023/12/27 00:01:43;;;;;;;0.95;0.82;;;;;;;16.29;48.17;93770.03;5040410;28;20067;-86
2023/12/27 00:04:09;;;;;;;1.65;0.95;;;;;;;16.25;48.35;93766.78;5054247;28;20041;-87
2023/12/27 00:06:34;;;;;;;1.45;1.17;;;;;;;16.23;48.33;93772.00;5037295;28;20076;-87
2023/12/27 00:09:00;;;;;;;2.50;0.98;;;;;;;16.27;48.24;93767.03;5011452;28;20103;-87
2023/12/27 00:11:26;;;;;;;1.08;0.90;;;;;;;16.29;47.96;93775.50;5044060;28;20147;-87
2023/12/27 00:13:51;;;;;;;2.00;1.05;;;;;;;16.24;48.65;93776.94;5029403;28;20123;-87
2023/12/27 00:16:17;;;;;;;1.10;0.80;;;;;;;16.27;48.48;93784.16;5014184;28;20057;-88
2023/12/27 00:18:43;;;;;;;2.20;1.30;;;;;;;16.22;48.35;93792.34;5044321;28;20048;-87
2023/12/27 00:21:08;;;;;;;1.42;0.98;;;;;;;16.25;48.50;93789.34;5008346;28;20087;-87
2023/12/27 00:23:34;;;;;;;1.63;0.98;;;;;;;16.31;47.87;93789.41;5025891;28;20456;-87
2023/12/27 00:25:59;;;;;;;1.05;0.93;;;;;;;16.27;48.08;93784.16;5013701;28;20045;-87
2023/12/27 00:28:25;;;;;;;1.15;0.90;;;;;;;16.26;48.15;93790.09;5025242;28;20045;-86
2023/12/27 00:30:51;;;;;;;2.53;0.90;;;;;;;16.19;48.67;93802.22;5046150;28;20071;-90
2023/12/27 00:33:17;;;;;;;1.13;0.82;;;;;;;16.26;48.12;93801.00;5026364;28;20121;-87
2023/12/27 00:35:42;;;;;;;1.67;0.90;;;;;;;16.23;48.37;93802.75;5046629;28;20055;-86
2023/12/27 00:38:08;;;;;;;1.08;0.85;;;;;;;16.23;48.67;93816.41;5021686;28;20041;-87
2023/12/27 00:40:33;;;;;;;2.42;0.80;;;;;;;16.25;48.22;93808.44;5009799;28;20033;-87
2023/12/27 00:42:59;;;;;;;1.40;0.90;;;;;;;16.25;48.28;93815.88;5042281;28;20431;-87
2023/12/27 00:45:24;;;;;;;1.35;0.90;;;;;;;16.27;48.00;93811.44;5030825;28;20465;-87
2023/12/27 00:47:51;;;;;;;1.70;0.82;;;;;;;16.27;48.21;93814.16;5012243;28;20033;-87
2023/12/27 00:50:17;;;;;;;1.98;0.82;;;;;;;16.27;48.35;93808.72;5029481;28;20037;-87
2023/12/27 00:52:42;;;;;;;1.02;0.90;;;;;;;16.28;48.30;93806.72;5042625;28;20059;-87
2023/12/27 00:55:08;;;;;;;1.48;1.02;;;;;;;16.29;48.00;93814.44;5047256;28;20705;-86
2023/12/27 00:57:33;;;;;;;1.15;0.80;;;;;;;16.28;48.26;93821.13;5029008;28;20029;-87
2023/12/27 00:59:59;;;;;;;1.50;1.13;;;;;;;16.30;48.17;93821.38;5036477;28;20115;-87
2023/12/27 01:02:25;;;;;;;1.73;0.88;;;;;;;16.27;48.44;93830.53;5059359;28;20025;-86
2023/12/27 01:04:52;;;;;;;1.40;1.00;;;;;;;16.25;48.33;93835.72;5038960;28;20038;-86
2023/12/27 01:07:21;;;;;;;1.48;1.10;;;;;;;16.28;47.97;93845.66;5026275;28;20566;-87
2023/12/27 01:09:46;;;;;;;1.45;0.98;;;;;;;16.19;48.37;93845.13;5039618;28;20045;-87
2023/12/27 01:12:12;;;;;;;1.40;1.10;;;;;;;16.22;48.03;93852.34;5007043;28;20123;-87
2023/12/27 01:14:37;;;;;;;1.35;0.90;;;;;;;16.25;47.82;93852.09;5036542;28;20037;-88
2023/12/27 01:17:03;;;;;;;2.08;0.98;;;;;;;16.27;48.28;93849.63;5010662;28;20103;-87
2023/12/27 01:19:28;;;;;;;1.20;0.90;;;;;;;16.27;48.32;93851.63;5033528;28;20124;-87
2023/12/27 01:21:54;;;;;;;0.98;0.80;;;;;;;16.29;48.19;93860.81;5035867;28;20053;-87
2023/12/27 01:24:19;;;;;;;1.00;0.90;;;;;;;16.24;48.74;93850.59;5018010;28;20046;-87
2023/12/27 01:26:45;;;;;;;1.20;0.80;;;;;;;16.24;47.91;93847.88;5011397;28;20037;-87
2023/12/27 01:29:10;;;;;;;0.85;0.77;;;;;;;16.26;48.28;93850.13;5024539;28;20046;-87
2023/12/27 01:31:36;;;;;;;1.38;0.80;;;;;;;16.28;48.44;93853.84;5023733;28;20994;-87
2023/12/27 01:34:01;;;;;;;0.95;0.70;;;;;;;16.29;47.71;93855.34;4995571;28;20446;-87
2023/12/27 01:36:26;;;;;;;1.17;0.73;;;;;;;16.23;48.43;93862.78;5041984;28;20030;-87
2023/12/27 01:38:52;;;;;;;1.13;0.80;;;;;;;16.26;48.13;93867.22;5035188;28;20044;-87
2023/12/27 01:41:17;;;;;;;1.10;0.95;;;;;;;16.30;48.31;93858.81;5024703;28;20103;-86
2023/12/27 01:43:43;;;;;;;1.08;0.73;;;;;;;16.28;47.95;93853.84;5047009;28;20052;-86
2023/12/27 01:46:08;;;;;;;1.80;1.00;;;;;;;16.20;48.56;93863.00;5040972;28;20060;-87
2023/12/27 01:48:35;;;;;;;1.75;1.10;;;;;;;16.21;48.45;93867.22;5022187;28;20056;-87
2023/12/27 01:51:01;;;;;;;2.33;0.90;;;;;;;16.21;48.21;93869.94;5038650;28;20033;-86
2023/12/27 01:53:26;;;;;;;1.20;0.90;;;;;;;16.21;48.48;93867.22;5029971;28;20033;-86
2023/12/27 01:55:52;;;;;;;1.25;0.80;;;;;;;16.27;48.03;93859.78;5047134;28;20075;-86
2023/12/27 01:58:17;;;;;;;1.40;0.80;;;;;;;16.22;48.16;93858.56;5013304;28;20045;-87
2023/12/27 02:00:44;;;;;;;2.05;1.00;;;;;;;16.21;48.14;93848.13;5032908;28;20060;-86
2023/12/27 02:03:10;;;;;;;1.67;0.98;;;;;;;16.26;48.40;93839.19;5047556;28;20570;-86
2023/12/27 02:05:35;;;;;;;1.00;0.90;;;;;;;16.27;47.91;93854.34;5020085;28;20123;-87
2023/12/27 02:08:00;;;;;;;1.50;0.80;;;;;;;16.23;48.12;93851.84;5039261;28;20933;-86
2023/12/27 02:10:27;;;;;;;0.98;0.82;;;;;;;16.23;48.44;93854.59;5034053;28;20075;-86
2023/12/27 02:12:53;;;;;;;1.10;0.82;;;;;;;16.23;48.42;93854.59;5027930;28;20488;-86
2023/12/27 02:15:19;;;;;;;0.70;0.47;;;;;;;16.24;48.34;93850.59;5030531;28;20577;-86
2023/12/27 02:17:45;;;;;;;0.88;0.73;;;;;;;16.19;48.28;93843.16;5030860;28;20045;-86
2023/12/27 02:20:10;;;;;;;1.23;0.80;;;;;;;16.24;48.16;93847.16;5043276;28;20399;-86
2023/12/27 02:22:36;;;;;;;1.20;1.02;;;;;;;16.22;48.28;93836.72;5035983;28;20038;-86
2023/12/27 02:25:01;;;;;;;0.80;0.73;;;;;;;16.27;48.10;93849.63;4999920;28;20103;-88
2023/12/27 02:27:27;;;;;;;1.10;0.80;;;;;;;16.25;48.42;93857.56;5023651;28;20037;-88
2023/12/27 02:29:53;;;;;;;0.77;0.68;;;;;;;16.18;48.58;93855.28;5059184;28;20407;-86
2023/12/27 02:32:18;;;;;;;1.02;0.80;;;;;;;16.23;48.40;93842.94;5027970;28;20059;-86
2023/12/27 02:34:43;;;;;;;0.90;0.60;;;;;;;16.15;48.76;93855.50;5036099;28;20049;-87
2023/12/27 02:37:09;;;;;;;0.95;0.60;;;;;;;16.24;48.20;93850.59;5031710;28;20391;-88
2023/12/27 02:39:34;;;;;;;1.70;0.88;;;;;;;16.20;48.03;93847.38;5015747;28;20072;-86
2023/12/27 02:42:00;;;;;;;1.63;0.70;;;;;;;16.18;48.29;93841.66;5024074;28;20042;-86
2023/12/27 02:44:26;;;;;;;0.70;0.52;;;;;;;16.27;47.85;93838.72;5052905;28;20036;-90
2023/12/27 02:46:52;;;;;;;0.77;0.75;;;;;;;16.25;47.81;93845.91;5064003;28;20051;-86
2023/12/27 02:49:18;;;;;;;0.60;0.60;;;;;;;16.28;47.85;93839.47;5021601;28;20040;-88
2023/12/27 02:51:43;;;;;;;0.90;0.70;;;;;;;16.28;48.20;93837.50;5043502;28;20583;-86
2023/12/27 02:54:09;;;;;;;1.02;0.70;;;;;;;16.27;48.06;93829.78;5047165;28;20073;-86
2023/12/27 02:56:34;;;;;;;1.17;0.73;;;;;;;16.22;47.99;93827.78;5023803;28;20033;-86
2023/12/27 02:58:59;;;;;;;1.10;0.63;;;;;;;16.22;47.97;93831.28;5029631;28;20060;-86
2023/12/27 03:01:25;;;;;;;1.05;0.60;;;;;;;16.24;47.81;93817.16;5041603;28;20407;-86
2023/12/27 03:03:51;;;;;;;1.73;0.90;;;;;;;16.23;47.95;93813.66;5019186;28;20107;-86
2023/12/27 03:06:16;;;;;;;1.75;0.80;;;;;;;16.18;48.16;93824.53;5033120;28;20507;-86
2023/12/27 03:08:41;;;;;;;0.63;0.60;;;;;;;16.19;48.56;93826.78;5033065;28;20037;-86
2023/12/27 03:11:07;;;;;;;2.17;0.75;;;;;;;16.25;48.17;93830.28;5040470;28;20041;-86
2023/12/27 03:13:33;;;;;;;0.90;0.80;;;;;;;16.25;48.02;93824.81;5064158;28;20031;-87
2023/12/27 03:16:05;;;;;;;1.35;0.80;;;;;;;16.24;48.20;93828.78;5050383;28;20041;-87
2023/12/27 03:18:30;;;;;;;0.57;0.47;;;;;;;16.23;47.83;93827.31;5056247;28;20041;-86
2023/12/27 03:20:55;;;;;;;1.17;0.80;;;;;;;16.30;48.16;93829.56;5041417;28;20102;-86
2023/12/27 03:23:21;;;;;;;0.75;0.55;;;;;;;16.27;48.03;93835.25;5028491;28;20065;-86
2023/12/27 03:25:46;;;;;;;1.33;0.80;;;;;;;16.23;48.06;93827.31;5024306;28;20044;-86
2023/12/27 03:28:12;;;;;;;0.60;0.50;;;;;;;16.20;48.27;93833.72;5049531;28;20795;-86
2023/12/27 03:30:37;;;;;;;1.75;0.70;;;;;;;16.25;47.89;93833.00;5045018;28;20046;-87
2023/12/27 03:33:03;;;;;;;1.88;0.95;;;;;;;16.25;48.04;93832.25;5033067;28;20053;-86
2023/12/27 03:35:29;;;;;;;0.80;0.75;;;;;;;16.24;48.07;93836.25;5026768;28;20128;-87
2023/12/27 03:37:55;;;;;;;1.05;0.63;;;;;;;16.21;48.53;93829.78;5026482;28;20037;-86
2023/12/27 03:40:21;;;;;;;0.77;0.68;;;;;;;16.24;48.16;93828.78;5038140;28;20038;-87
2023/12/27 03:42:46;;;;;;;0.75;0.60;;;;;;;16.25;47.87;93824.81;5040505;28;20052;-87
2023/12/27 03:45:11;;;;;;;0.98;0.70;;;;;;;16.25;47.92;93833.00;5043680;28;20428;-86
2023/12/27 03:47:37;;;;;;;0.90;0.70;;;;;;;16.26;47.97;93831.03;5043135;28;20044;-90
2023/12/27 03:50:04;;;;;;;0.63;0.50;;;;;;;16.28;47.75;93831.28;5034493;28;20040;-87
2023/12/27 03:52:29;;;;;;;1.60;0.95;;;;;;;16.28;47.91;93839.47;5031011;28;20048;-86
2023/12/27 03:54:55;;;;;;;0.80;0.70;;;;;;;16.21;48.18;93826.31;5025177;28;20049;-86
2023/12/27 03:57:20;;;;;;;0.63;0.57;;;;;;;16.19;48.39;93839.66;5029305;28;20049;-86
2023/12/27 03:59:46;;;;;;;0.65;0.60;;;;;;;16.18;48.40;93830.00;5028767;28;20071;-87
2023/12/27 04:02:11;;;;;;;0.55;0.50;;;;;;;16.24;48.07;93830.78;5027636;28;20042;-86
2023/12/27 04:04:40;;;;;;;1.80;0.95;;;;;;;16.19;48.26;93842.41;4995823;28;20041;-87
2023/12/27 04:07:05;;;;;;;0.52;0.52;;;;;;;16.21;47.89;93840.69;5004138;28;20171;-87
2023/12/27 04:09:31;;;;;;;0.70;0.63;;;;;;;16.25;47.70;93834.97;5042535;28;20056;-87
2023/12/27 04:11:56;;;;;;;0.60;0.60;;;;;;;16.22;48.13;93825.81;5037101;28;20052;-86
2023/12/27 04:14:22;;;;;;;0.73;0.50;;;;;;;16.24;48.22;93817.16;5009116;28;20045;-88
2023/12/27 04:16:47;;;;;;;0.98;0.50;;;;;;;16.16;48.40;93808.66;5028801;28;20036;-86
2023/12/27 04:19:13;;;;;;;0.50;0.50;;;;;;;16.16;48.25;93813.38;5046759;28;20048;-86
2023/12/27 04:21:40;;;;;;;1.00;0.82;;;;;;;16.23;48.20;93807.47;5067241;28;20376;-87
2023/12/27 04:24:06;;;;;;;0.85;0.60;;;;;;;16.22;48.12;93812.19;5027653;28;20466;-87
2023/12/27 04:26:31;;;;;;;1.15;0.80;;;;;;;16.21;48.28;93813.41;5045892;28;20102;-86
2023/12/27 04:28:57;;;;;;;1.33;0.80;;;;;;;16.17;48.16;93809.41;5066614;28;20036;-86
2023/12/27 04:31:22;;;;;;;1.10;0.70;;;;;;;16.28;47.83;93814.91;5027821;28;20041;-86
2023/12/27 04:33:48;;;;;;;0.98;0.70;;;;;;;16.23;47.96;93810.94;5045337;28;20037;-87
2023/12/27 04:36:13;;;;;;;1.05;0.73;;;;;;;16.19;47.86;93810.41;5030591;28;20049;-87
2023/12/27 04:38:39;;;;;;;1.38;0.80;;;;;;;16.20;48.26;93816.63;5038797;28;20102;-86
2023/12/27 04:41:08;;;;;;;1.23;1.00;;;;;;;16.20;48.01;93816.63;5046187;28;20045;-87
2023/12/27 04:43:33;;;;;;;1.10;0.68;;;;;;;16.18;48.19;93828.00;5023926;28;20039;-87
2023/12/27 04:45:59;;;;;;;2.55;1.70;;;;;;;16.22;48.31;93828.53;5033133;28;20108;-86
2023/12/27 04:48:24;;;;;;;2.72;1.52;;;;;;;16.23;48.10;93843.69;5031857;28;20102;-87
2023/12/27 04:50:50;;;;;;;2.38;1.65;;;;;;;16.19;48.26;93843.16;5021984;28;20774;-87
2023/12/27 04:53:15;;;;;;;3.70;2.58;;;;;;;16.26;48.16;93834.50;5058964;28;20148;-86
2023/12/27 04:55:40;;;;;;;3.75;1.90;;;;;;;16.20;48.51;93833.72;5045256;28;20056;-86
2023/12/27 04:58:06;;;;;;;6.45;3.25;;;;;;;16.27;48.00;93841.44;5019145;28;20040;-86
2023/12/27 05:00:31;;;;;;;3.58;2.35;;;;;;;16.23;48.21;93837.47;5020125;28;20102;-88
2023/12/27 05:02:57;;;;;;;5.07;3.15;;;;;;;16.25;48.34;93846.63;5029082;28;20040;-86
2023/12/27 05:05:22;;;;;;;8.05;4.60;;;;;;;16.27;48.46;93846.16;5061762;28;20041;-89
2023/12/27 05:07:48;;;;;;;8.45;4.82;;;;;;;16.28;48.00;93853.84;5046603;28;20045;-87
2023/12/27 05:10:13;;;;;;;8.38;5.10;;;;;;;16.23;48.51;93862.78;5011173;28;20051;-86
2023/12/27 05:12:39;;;;;;;2.25;1.77;;;;;;;16.15;48.49;93871.88;5016895;28;20046;-87
2023/12/27 05:15:05;;;;;;;3.88;2.33;;;;;;;16.21;48.17;93872.66;5027095;28;20049;-87
2023/12/27 05:17:31;;;;;;;4.60;2.38;;;;;;;16.24;48.38;93882.63;5041197;28;20045;-87
2023/12/27 05:19:56;;;;;;;3.83;2.47;;;;;;;16.23;48.44;93889.31;5044497;28;20044;-87
2023/12/27 05:22:21;;;;;;;6.80;3.60;;;;;;;16.24;48.59;93877.88;5037513;28;20180;-86
2023/12/27 05:24:47;;;;;;;2.03;1.45;;;;;;;16.18;48.33;93885.28;5029437;28;20045;-87
2023/12/27 05:27:12;;;;;;;4.25;2.30;;;;;;;16.23;48.07;93881.88;5028292;28;20070;-87
2023/12/27 05:29:38;;;;;;;2.67;1.70;;;;;;;16.19;47.79;93875.13;5048801;28;20403;-86
2023/12/27 05:32:04;;;;;;;4.55;2.53;;;;;;;16.24;48.02;93869.69;5025178;28;21021;-87
2023/12/27 05:34:29;;;;;;;1.77;1.20;;;;;;;16.16;48.19;93876.84;5046090;28;20037;-86
2023/12/27 05:36:55;;;;;;;5.85;2.40;;;;;;;16.26;48.13;93874.66;5045961;28;20473;-88
2023/12/27 05:39:20;;;;;;;5.45;3.13;;;;;;;16.28;47.99;93872.19;5028539;28;20038;-86
2023/12/27 05:41:46;;;;;;;6.55;3.72;;;;;;;16.21;48.21;93881.59;5009954;28;20136;-86
2023/12/27 05:44:11;;;;;;;6.07;3.30;;;;;;;16.26;48.26;93869.97;5032206;28;20541;-86
2023/12/27 05:46:37;;;;;;;6.50;3.17;;;;;;;16.22;48.11;93874.16;5044843;28;20084;-86
2023/12/27 05:49:03;;;;;;;2.88;1.83;;;;;;;16.24;48.13;93879.88;5034297;28;20068;-86
2023/12/27 05:51:28;;;;;;;6.65;3.13;;;;;;;16.25;48.17;93873.91;5015601;28;20090;-86
2023/12/27 05:53:54;;;;;;;5.00;2.65;;;;;;;16.21;48.09;93875.41;5045151;28;20385;-89
2023/12/27 05:56:19;;;;;;;5.82;2.63;;;;;;;16.21;48.18;93875.41;5029544;28;20045;-87
2023/12/27 05:58:45;;;;;;;3.97;2.20;;;;;;;16.21;48.11;93880.84;5048521;28;20043;-89
2023/12/27 06:01:10;;;;;;;4.78;2.70;;;;;;;16.25;47.81;93873.16;5016601;28;20127;-86
2023/12/27 06:03:36;;;;;;;3.63;2.10;;;;;;;16.20;47.87;93873.91;5027068;28;20072;-88
2023/12/27 06:06:04;;;;;;;4.07;2.45;;;;;;;16.21;48.02;93867.22;5013604;28;20378;-86
2023/12/27 06:08:30;;;;;;;3.33;2.17;;;;;;;16.22;48.18;93865.97;5029982;28;20064;-87
2023/12/27 06:10:55;;;;;;;4.20;2.60;;;;;;;16.27;47.94;93870.72;5029312;28;20576;-87
2023/12/27 06:13:20;;;;;;;2.83;2.28;;;;;;;16.23;48.20;93881.88;5049703;28;20036;-86
2023/12/27 06:15:46;;;;;;;2.33;1.20;;;;;;;16.23;48.10;93881.88;5015869;28;20359;-86
2023/12/27 06:18:11;;;;;;;3.08;2.20;;;;;;;16.27;48.14;93885.09;5050993;28;20033;-86
2023/12/27 06:20:37;;;;;;;3.83;2.20;;;;;;;16.20;48.04;93882.09;5068112;28;20032;-86
2023/12/27 06:23:02;;;;;;;4.15;2.17;;;;;;;16.21;48.30;93878.88;5059503;28;20054;-87
2023/12/27 06:25:28;;;;;;;2.55;1.50;;;;;;;16.22;48.13;93879.63;5028237;28;20040;-87
2023/12/27 06:27:54;;;;;;;3.10;1.20;;;;;;;16.19;47.91;93873.16;5047195;28;20041;-87
2023/12/27 06:30:19;;;;;;;1.38;0.90;;;;;;;16.17;48.11;93880.31;5051004;28;20051;-86
2023/12/27 06:32:45;;;;;;;1.80;1.20;;;;;;;16.25;47.75;93881.34;5061691;28;20044;-87
2023/12/27 06:35:10;;;;;;;2.75;1.23;;;;;;;16.23;48.26;93881.88;5046606;28;20044;-87
2023/12/27 06:37:36;;;;;;;2.97;1.25;;;;;;;16.22;48.10;93885.06;5047715;28;20064;-88
2023/12/27 06:40:01;;;;;;;3.35;1.80;;;;;;;16.25;47.91;93884.09;5048121;28;20496;-87
2023/12/27 06:42:27;;;;;;;1.90;1.30;;;;;;;16.23;47.93;93886.56;5035124;28;20072;-88
2023/12/27 06:44:52;;;;;;;2.10;1.48;;;;;;;16.28;47.75;93888.56;5033659;28;20099;-87
2023/12/27 06:47:18;;;;;;;1.85;1.20;;;;;;;16.22;48.21;93902.19;5058534;28;20107;-87
2023/12/27 06:49:45;;;;;;;2.83;1.35;;;;;;;16.27;47.60;93900.72;5059936;28;20029;-86
2023/12/27 06:52:11;;;;;;;2.92;1.65;;;;;;;16.26;47.73;93904.69;5045323;28;20566;-86
2023/12/27 06:54:36;;;;;;;1.73;1.08;;;;;;;16.30;47.81;93907.94;5031075;28;20033;-87
2023/12/27 06:57:03;;;;;;;2.00;1.30;;;;;;;16.31;47.54;93901.25;5010995;28;20041;-86
2023/12/27 06:59:28;;;;;;;2.78;1.58;;;;;;;16.27;47.99;93901.47;5066873;28;20060;-87
2023/12/27 07:01:54;;;;;;;2.42;1.25;;;;;;;16.24;48.06;93909.91;5059093;28;20535;-87
2023/12/27 07:04:19;;;;;;;2.03;0.90;;;;;;;16.22;48.26;93902.19;5034648;28;20127;-87
2023/12/27 07:06:44;;;;;;;1.70;0.93;;;;;;;16.26;48.13;93902.69;5047189;28;20474;-86
2023/12/27 07:09:10;;;;;;;1.88;1.35;;;;;;;16.27;47.79;93919.81;5029121;28;20408;-86
2023/12/27 07:11:35;;;;;;;0.90;0.70;;;;;;;16.19;48.34;93924.22;5028281;28;20148;-90
2023/12/27 07:14:01;;;;;;;2.63;1.60;;;;;;;16.27;47.65;93930.72;5041715;28;20093;-86
2023/12/27 07:16:26;;;;;;;2.20;1.27;;;;;;;16.31;47.58;93933.97;5013099;28;20045;-86
2023/12/27 07:18:52;;;;;;;0.93;0.80;;;;;;;16.28;47.65;93945.84;5033540;28;20147;-86
2023/12/27 07:21:18;;;;;;;2.53;1.35;;;;;;;16.27;47.79;93944.38;5026663;28;20033;-88
2023/12/27 07:23:43;;;;;;;1.13;0.73;;;;;;;16.22;48.37;93936.91;5021759;28;20045;-87
2023/12/27 07:26:12;;;;;;;1.17;0.90;;;;;;;16.30;47.78;93940.66;5038434;28;20043;-88
2023/12/27 07:28:38;;;;;;;0.95;0.80;;;;;;;16.28;47.75;93943.13;5029237;28;20451;-86
2023/12/27 07:31:03;;;;;;;1.25;0.88;;;;;;;16.21;47.84;93941.59;5041493;28;20057;-88
2023/12/27 07:33:29;;;;;;;1.83;1.00;;;;;;;16.26;47.80;93938.16;5010254;28;20038;-86
2023/12/27 07:35:54;;;;;;;1.02;0.80;;;;;;;16.29;48.18;93936.44;5040862;28;20079;-87
2023/12/27 07:38:20;;;;;;;1.58;0.98;;;;;;;16.26;47.73;93940.88;5040104;28;20045;-86
2023/12/27 07:40:45;;;;;;;1.80;1.38;;;;;;;16.30;48.05;93949.59;5051814;28;20582;-86
2023/12/27 07:43:10;;;;;;;1.55;1.15;;;;;;;16.24;47.98;93959.72;5045183;28;20040;-86
2023/12/27 07:45:36;;;;;;;3.38;2.20;;;;;;;16.29;47.79;93961.75;5041945;28;20055;-87
2023/12/27 07:48:02;;;;;;;2.78;1.73;;;;;;;16.27;47.80;93966.94;5043030;28;20612;-87
2023/12/27 07:50:27;;;;;;;2.58;1.55;;;;;;;16.28;47.93;93951.31;5032874;28;20038;-87
2023/12/27 07:52:53;;;;;;;1.85;1.17;;;;;;;16.23;48.20;93954.78;5028209;28;20037;-86
2023/12/27 07:55:19;;;;;;;2.42;1.00;;;;;;;16.22;48.13;93964.19;5019955;28;20037;-87
2023/12/27 07:57:45;;;;;;;3.38;2.13;;;;;;;16.24;47.81;93965.16;5042886;28;20045;-87
2023/12/27 08:00:15;;;;;;;1.23;0.98;;;;;;;16.25;48.07;93955.00;5024051;28;20069;-86
2023/12/27 08:02:41;;;;;;;20.20;11.48;;;;;;;16.23;48.23;93952.78;5020232;28;20753;-88
2023/12/27 08:05:07;;;;;;;2.95;1.98;;;;;;;16.25;48.02;93955.00;5023720;28;20048;-87
2023/12/27 08:07:32;;;;;;;9.88;5.85;;;;;;;16.15;48.24;93949.00;5029930;28;20033;-86
2023/12/27 08:09:58;;;;;;;56.65;27.85;;;;;;;16.22;48.08;93962.19;5027248;28;20193;-87
2023/12/27 08:12:23;;;;;;;14.50;6.20;;;;;;;16.26;48.05;93967.41;5030855;28;20120;-86
2023/12/27 08:14:49;;;;;;;5.63;2.40;;;;;;;16.27;47.94;93952.53;5048629;28;20050;-86
2023/12/27 08:17:15;;;;;;;3.42;2.25;;;;;;;16.25;48.07;93946.81;5039626;28;20043;-86
2023/12/27 08:19:41;;;;;;;6.57;3.03;;;;;;;16.30;47.83;93944.16;5027066;28;20041;-86
2023/12/27 08:22:06;;;;;;;4.75;2.80;;;;;;;16.35;47.63;93948.16;5026170;28;20047;-88
2023/12/27 08:24:32;;;;;;;5.60;3.03;;;;;;;16.30;48.12;93959.78;5043723;28;20045;-89
2023/12/27 08:26:57;;;;;;;3.15;2.65;;;;;;;16.26;48.04;93956.50;5047985;28;20052;-87
2023/12/27 08:29:23;;;;;;;4.75;3.13;;;;;;;16.25;47.67;93972.13;5013174;28;20034;-86
2023/12/27 08:31:48;;;;;;;4.38;2.80;;;;;;;16.29;47.82;93964.47;5035498;28;20424;-87
2023/12/27 08:34:13;;;;;;;3.53;2.53;;;;;;;16.28;48.01;93964.97;5055336;28;20051;-87
2023/12/27 08:36:40;;;;;;;7.70;3.25;;;;;;;16.29;47.84;93964.47;5048969;28;20037;-87
2023/12/27 08:39:06;;;;;;;5.38;3.15;;;;;;;16.30;47.97;93976.88;5044899;28;20045;-88
2023/12/27 08:41:31;;;;;;;4.28;2.40;;;;;;;16.29;47.91;93985.56;5046046;28;20041;-87
2023/12/27 08:43:57;;;;;;;6.07;3.42;;;;;;;16.34;48.12;93982.88;5021698;28;20465;-87
2023/12/27 08:46:23;;;;;;;3.90;2.55;;;;;;;16.33;47.65;93984.09;4996633;28;20044;-87
2023/12/27 08:48:48;;;;;;;3.75;2.58;;;;;;;16.30;47.87;93982.34;5045008;28;20087;-90
2023/12/27 08:51:14;;;;;;;3.85;2.47;;;;;;;16.39;47.41;93978.72;5044949;28;20048;-89
2023/12/27 08:53:39;;;;;;;3.53;2.28;;;;;;;16.35;47.63;93976.19;5059988;28;20029;-88
2023/12/27 08:56:05;;;;;;;3.15;2.00;;;;;;;16.31;47.83;93978.38;5037164;28;20099;-89
2023/12/27 08:58:30;;;;;;;3.33;2.65;;;;;;;16.37;47.63;93975.72;5050237;28;20036;-90
2023/12/27 09:00:58;;;;;;;4.07;2.40;;;;;;;16.40;47.82;93986.41;5024028;28;20083;-87
2023/12/27 09:03:24;;;;;;;18.35;8.70;;;;;;;16.48;47.54;94000.34;5025945;28;20061;-88
2023/12/27 09:05:50;;;;;;;226.30;91.28;;;;;;;16.47;47.44;93998.84;5018717;28;20052;-92
2023/12/27 09:08:15;;;;;;;107.80;40.15;;;;;;;16.51;47.45;93999.38;5020866;28;20030;-90
2023/12/27 09:10:41;;;;;;;56.60;22.48;;;;;;;16.56;47.51;93995.97;5028440;28;20869;-92
2023/12/27 09:13:06;;;;;;;6.32;3.50;;;;;;;16.53;47.40;93987.97;5016588;28;20042;-90
2023/12/27 09:15:32;;;;;;;13.93;8.20;;;;;;;16.55;47.75;93997.19;5009335;28;20041;-89
2023/12/27 09:17:57;;;;;;;13.05;6.32;;;;;;;16.53;47.68;93999.66;5041162;28;20045;-89
2023/12/27 09:20:23;;;;;;;12.13;3.80;;;;;;;16.59;47.70;93996.97;5041490;28;20041;-89
2023/12/27 09:22:48;;;;;;;12.07;4.40;;;;;;;16.54;47.53;93994.94;5011066;28;20039;-88
2023/12/27 09:25:14;;;;;;;9.10;4.95;;;;;;;16.51;47.63;93993.19;5029007;28;20040;-88
2023/12/27 09:27:39;;;;;;;6.93;3.83;;;;;;;16.50;47.83;93992.44;5036388;28;20056;-88
2023/12/27 09:30:06;;;;;;;12.77;3.97;;;;;;;16.56;47.38;93987.78;5010124;28;20052;-89
2023/12/27 09:32:32;;;;;;;12.40;3.35;;;;;;;16.49;47.38;93990.19;5046792;28;20130;-91
2023/12/27 09:34:57;;;;;;;6.78;4.03;;;;;;;16.52;47.81;93978.31;5024652;28;20033;-89
2023/12/27 09:37:23;;;;;;;5.07;3.90;;;;;;;16.52;47.21;93975.56;5002865;28;20045;-89
2023/12/27 09:39:48;;;;;;;11.48;8.35;;;;;;;16.57;47.76;93972.16;5011247;28;20045;-91
2023/12/27 09:42:14;;;;;;;8.85;6.13;;;;;;;16.61;47.04;93967.97;5036615;28;20203;-89
2023/12/27 09:44:40;;;;;;;12.77;8.45;;;;;;;16.58;47.65;93962.72;5042182;28;20121;-87
2023/12/27 09:47:06;;;;;;;11.93;5.70;;;;;;;16.58;47.45;93957.25;5007956;28;20038;-89
2023/12/27 09:49:31;;;;;;;48.00;22.35;;;;;;;16.60;47.31;93947.34;5015103;28;20075;-88
2023/12/27 09:51:57;;;;;;;304.08;103.03;;;;;;;16.60;47.49;93947.34;5032539;28;20544;-88
2023/12/27 09:54:26;;;;;;;29.05;10.45;;;;;;;16.60;47.58;93949.34;5009990;28;20053;-88
2023/12/27 09:56:53;;;;;;;55.20;19.52;;;;;;;16.62;47.45;93944.91;5039932;28;20661;-89
2023/12/27 09:59:26;;;;;;;15.05;6.60;;;;;;;16.58;47.30;93943.63;5022432;28;20049;-90
2023/12/27 10:01:52;;;;;;;12.45;6.03;;;;;;;16.55;47.32;93947.31;5025200;28;20116;-88
2023/12/27 10:04:23;;;;;;;16.13;9.07;;;;;;;16.61;47.13;93943.41;5022863;28;20064;-89
2023/12/27 10:06:49;;;;;;;14.18;8.68;;;;;;;16.58;47.53;93951.81;5024608;28;20397;-90
2023/12/27 10:09:14;;;;;;;15.32;7.35;;;;;;;16.50;47.33;93948.00;5046448;28;20517;-91
2023/12/27 10:11:41;;;;;;;15.82;7.35;;;;;;;16.54;47.70;93938.38;5024391;28;20037;-89
2023/12/27 10:14:09;;;;;;;13.18;7.75;;;;;;;16.53;47.67;93939.59;5033088;28;20091;-88
2023/12/27 10:16:36;;;;;;;24.77;13.48;;;;;;;16.54;47.61;93940.34;5014224;28;20570;-88
2023/12/27 10:19:04;;;;;;;23.80;12.85;;;;;;;16.59;47.53;93929.50;5011282;28;20553;-91
2023/12/27 10:21:42;;;;;;;26.52;16.98;;;;;;;16.53;47.55;93928.69;5030869;28;20094;-89
2023/12/27 10:24:08;;;;;;;9.50;5.78;;;;;;;16.38;45.90;93920.66;5037127;28;20033;-90
2023/12/27 10:26:35;;;;;;;8.93;4.70;;;;;;;16.28;45.28;93924.03;5030126;28;20063;-89
2023/12/27 10:29:01;;;;;;;18.45;4.43;;;;;;;16.22;45.30;93921.28;5018856;28;20037;-89
2023/12/27 10:31:26;;;;;;;13.10;3.90;;;;;;;16.11;44.66;93919.19;5009861;28;20064;-88
2023/12/27 10:33:52;;;;;;;12.85;3.70;;;;;;;16.00;44.93;93915.66;5017461;28;20048;-89
2023/12/27 10:36:17;;;;;;;10.52;3.67;;;;;;;16.04;44.50;93910.69;5012328;28;20045;-91
2023/12/27 10:38:44;;;;;;;13.70;3.13;;;;;;;16.06;44.65;93900.81;5022392;28;20045;-89
2023/12/27 10:41:10;;;;;;;12.27;4.70;;;;;;;16.10;44.59;93897.88;5003229;28;20045;-91
2023/12/27 10:43:35;;;;;;;14.80;4.05;;;;;;;16.10;44.67;93900.59;5033964;28;20040;-91
2023/12/27 10:46:07;;;;;;;11.50;4.18;;;;;;;16.08;44.95;93898.34;5044483;28;20042;-89
2023/12/27 10:48:33;;;;;;;10.23;3.97;;;;;;;16.14;44.58;93901.13;5040055;28;20048;-91
2023/12/27 10:50:58;;;;;;;10.68;4.53;;;;;;;16.19;45.33;93881.34;5029071;28;20446;-90
2023/12/27 10:53:24;;;;;;;8.65;4.03;;;;;;;16.22;45.57;93890.53;5049329;28;20041;-90
2023/12/27 10:55:49;;;;;;;15.93;6.05;;;;;;;16.25;45.64;93873.91;5034656;28;20132;-90
2023/12/27 10:58:20;;;;;;;13.65;5.40;;;;;;;16.20;45.87;93868.44;5012469;28;20179;-89
2023/12/27 11:00:46;;;;;;;12.90;5.50;;;;;;;16.21;45.80;93869.94;5039135;28;20079;-88
2023/12/27 11:03:12;;;;;;;12.77;5.32;;;;;;;16.26;46.02;93858.31;5034459;28;20041;-89
2023/12/27 11:05:38;;;;;;;17.48;6.88;;;;;;;16.28;46.20;93859.31;5041169;28;20512;-89
2023/12/27 11:08:04;;;;;;;13.68;6.95;;;;;;;16.26;46.39;93855.56;5020953;28;20079;-91
2023/12/27 11:10:30;;;;;;;13.88;6.80;;;;;;;16.30;46.64;93845.19;5019386;28;20091;-89
2023/12/27 11:12:56;;;;;;;13.45;6.43;;;;;;;16.29;46.46;93846.41;5032800;28;20037;-90
2023/12/27 11:15:21;;;;;;;15.95;7.82;;;;;;;16.32;46.38;93843.47;5002760;28;20103;-91
2023/12/27 11:17:50;;;;;;;13.38;6.80;;;;;;;16.35;45.96;93845.22;5033069;28;20156;-90
2023/12/27 11:20:20;;;;;;;16.83;7.50;;;;;;;16.31;46.66;93833.78;4959323;28;20036;-89
2023/12/27 11:22:45;;;;;;;13.30;7.10;;;;;;;16.27;46.15;93827.81;5050033;28;20474;-91
2023/12/27 11:25:11;;;;;;;15.35;6.10;;;;;;;16.30;46.27;93815.19;5039936;28;20119;-94